Time;durP1;ratioP1;P1;durP2;ratioP2;P2;SDS_P1;SDS_P2;PMS_P1;PMS_P2;Temp;Humidity;BMP_temperature;BMP_pressure;BME280_temperature;BME280_humidity;BME280_pressure;Samples;Min_cycle;Max_cycle;Signal;HPM_P1;HPM_P2
2021/08/12 00:01:07;;;;;;;6.82;4.13;;;18.70;88.70;;;;;;5009540;28;20033;-68
2021/08/12 00:03:34;;;;;;;6.07;3.58;;;18.70;88.80;;;;;;5009871;28;20151;-68
2021/08/12 00:05:59;;;;;;;9.20;4.22;;;18.60;89.00;;;;;;5006089;28;20081;-69
2021/08/12 00:08:25;;;;;;;6.13;3.65;;;18.60;88.90;;;;;;5009583;28;20427;-67
2021/08/12 00:10:51;;;;;;;7.88;4.13;;;18.60;88.90;;;;;;5009765;28;20041;-68
2021/08/12 00:13:17;;;;;;;5.40;4.40;;;18.50;88.90;;;;;;5010417;28;20028;-68
2021/08/12 00:15:43;;;;;;;6.63;4.22;;;18.50;89.10;;;;;;5009005;28;20026;-69
2021/08/12 00:18:09;;;;;;;5.35;3.83;;;18.50;89.30;;;;;;5009874;28;20033;-69
2021/08/12 00:20:34;;;;;;;5.40;3.60;;;18.50;89.40;;;;;;5008022;28;20044;-67
2021/08/12 00:23:00;;;;;;;7.20;4.05;;;18.40;89.40;;;;;;5009415;28;20072;-68
2021/08/12 00:25:25;;;;;;;5.18;3.88;;;18.40;89.40;;;;;;4991571;28;20026;-68
2021/08/12 00:27:51;;;;;;;6.53;4.00;;;18.40;89.50;;;;;;5009204;28;20034;-68
2021/08/12 00:30:16;;;;;;;7.22;4.15;;;18.40;89.50;;;;;;5006262;28;20038;-66
2021/08/12 00:32:42;;;;;;;6.28;4.10;;;18.40;89.50;;;;;;5012303;28;20371;-68
2021/08/12 00:35:08;;;;;;;6.55;4.22;;;18.30;89.40;;;;;;5013004;28;20053;-68
2021/08/12 00:37:34;;;;;;;5.13;3.80;;;18.30;89.70;;;;;;5012780;28;20060;-68
2021/08/12 00:39:59;;;;;;;6.30;4.32;;;18.20;90.00;;;;;;4996033;28;20491;-68
2021/08/12 00:42:25;;;;;;;5.28;4.38;;;18.20;90.00;;;;;;5013599;28;20029;-67
2021/08/12 00:44:51;;;;;;;8.40;4.10;;;18.20;90.00;;;;;;4994971;28;20117;-65
2021/08/12 00:47:16;;;;;;;4.82;4.15;;;18.20;90.00;;;;;;5005766;28;20084;-67
2021/08/12 00:49:42;;;;;;;7.97;3.75;;;18.20;90.00;;;;;;5013922;28;20034;-68
2021/08/12 00:52:10;;;;;;;5.93;4.05;;;18.10;90.00;;;;;;4995319;28;20049;-68
2021/08/12 00:54:40;;;;;;;7.10;3.75;;;18.10;90.10;;;;;;5012567;28;20398;-69
2021/08/12 00:57:09;;;;;;;7.20;4.03;;;18.10;90.10;;;;;;5013445;28;20022;-68
2021/08/12 00:59:41;;;;;;;6.30;3.92;;;18.00;90.10;;;;;;5016937;28;20042;-68
2021/08/12 01:02:10;;;;;;;6.75;4.63;;;18.00;90.20;;;;;;5011913;28;20490;-68
2021/08/12 01:04:41;;;;;;;9.13;4.20;;;18.00;90.10;;;;;;5012140;28;20030;-68
2021/08/12 01:07:12;;;;;;;8.55;4.80;;;18.00;90.20;;;;;;5012792;28;20033;-68
2021/08/12 01:09:54;;;;;;;6.18;4.30;;;18.00;90.20;;;;;;5013010;28;20040;-67
2021/08/12 01:12:48;;;;;;;6.40;4.43;;;18.00;90.60;;;;;;5011649;28;20061;-68
2021/08/12 01:15:42;;;;;;;5.22;4.07;;;18.00;90.40;;;;;;4993417;28;20139;-69
2021/08/12 01:18:12;;;;;;;5.45;4.20;;;18.00;90.30;;;;;;5006549;28;20380;-68
2021/08/12 01:20:50;;;;;;;7.30;4.40;;;17.90;90.30;;;;;;5013208;28;20073;-67
2021/08/12 01:23:16;;;;;;;5.68;4.00;;;17.90;90.30;;;;;;5011781;28;20122;-68
2021/08/12 01:25:44;;;;;;;9.30;4.45;;;17.80;90.40;;;;;;5006140;28;20386;-67
2021/08/12 01:28:26;;;;;;;8.30;4.75;;;17.80;90.40;;;;;;5008523;28;20034;-68
2021/08/12 01:31:10;;;;;;;6.27;4.43;;;17.80;90.50;;;;;;5026727;28;20119;-65
2021/08/12 01:33:51;;;;;;;8.05;4.10;;;17.70;90.40;;;;;;5011839;28;20280;-65
2021/08/12 01:36:19;;;;;;;5.03;4.25;;;17.70;90.50;;;;;;5011100;28;20022;-68
2021/08/12 01:38:47;;;;;;;8.77;4.47;;;17.80;90.50;;;;;;5011985;28;20119;-66
2021/08/12 01:41:13;;;;;;;5.53;4.50;;;17.70;90.50;;;;;;4991561;28;20029;-67
2021/08/12 01:43:39;;;;;;;6.50;4.43;;;17.70;90.50;;;;;;5010497;28;20029;-66
2021/08/12 01:46:06;;;;;;;5.60;4.00;;;17.70;90.50;;;;;;5011357;28;20477;-68
2021/08/12 01:48:33;;;;;;;5.75;4.15;;;17.70;90.60;;;;;;4994641;28;20034;-69
2021/08/12 01:50:59;;;;;;;4.75;4.07;;;17.70;90.60;;;;;;5012318;28;20084;-69
2021/08/12 01:53:25;;;;;;;6.38;4.00;;;17.70;90.60;;;;;;5011763;28;20140;-66
2021/08/12 01:55:52;;;;;;;6.80;3.90;;;17.70;90.50;;;;;;5011672;28;20030;-67
2021/08/12 01:58:20;;;;;;;8.13;4.65;;;17.70;90.60;;;;;;5012667;28;20048;-69
2021/08/12 02:00:47;;;;;;;5.85;3.72;;;17.70;90.60;;;;;;5015443;28;20030;-68
2021/08/12 02:03:17;;;;;;;10.10;4.20;;;17.60;90.60;;;;;;5003155;28;20018;-69
2021/08/12 02:05:47;;;;;;;9.13;4.65;;;17.60;90.70;;;;;;5010433;28;20068;-68
2021/08/12 02:08:14;;;;;;;5.57;3.78;;;17.70;90.70;;;;;;5010223;28;20504;-68
2021/08/12 02:13:10;;;;;;;10.30;4.38;;;17.60;90.60;;;;;;5004600;28;20064;-67
2021/08/12 02:15:36;;;;;;;9.77;3.83;;;17.60;90.60;;;;;;5007780;28;20084;-67
2021/08/12 02:18:03;;;;;;;5.35;3.88;;;17.50;90.60;;;;;;5011295;28;20120;-67
2021/08/12 02:20:29;;;;;;;4.75;3.80;;;17.50;90.60;;;;;;5011895;28;20069;-67
2021/08/12 02:22:58;;;;;;;5.18;4.43;;;17.50;90.70;;;;;;5011571;28;20053;-67
2021/08/12 02:25:50;;;;;;;5.88;3.42;;;17.50;90.90;;;;;;5010309;28;20109;-67
2021/08/12 02:28:17;;;;;;;4.13;3.33;;;17.50;90.90;;;;;;5011585;28;20445;-67
2021/08/12 02:30:45;;;;;;;10.13;3.97;;;17.40;90.80;;;;;;5011894;28;20038;-67
2021/08/12 02:33:15;;;;;;;5.70;3.80;;;17.40;90.80;;;;;;5011586;28;20064;-67
2021/08/12 02:35:42;;;;;;;5.63;4.15;;;17.40;90.90;;;;;;5009215;28;20091;-67
2021/08/12 02:38:11;;;;;;;6.90;3.65;;;17.40;90.80;;;;;;5011007;28;20502;-67
2021/08/12 02:40:38;;;;;;;5.80;3.70;;;17.40;90.90;;;;;;5010164;28;20084;-67
2021/08/12 02:43:04;;;;;;;4.82;4.18;;;17.40;90.90;;;;;;5009999;28;20433;-67
2021/08/12 02:45:33;;;;;;;6.35;4.05;;;17.30;90.90;;;;;;5016760;28;20026;-67
2021/08/12 02:48:00;;;;;;;5.72;3.58;;;17.30;90.90;;;;;;5011097;28;20057;-67
2021/08/12 02:50:27;;;;;;;4.78;3.53;;;17.30;90.90;;;;;;5011660;28;20058;-67
2021/08/12 02:52:53;;;;;;;8.15;4.10;;;17.20;90.90;;;;;;5011378;28;20393;-67
2021/08/12 02:55:19;;;;;;;6.45;3.80;;;17.20;90.80;;;;;;5010198;28;20030;-67
2021/08/12 02:57:45;;;;;;;6.78;3.65;;;17.10;90.80;;;;;;5011450;28;20022;-67
2021/08/12 03:00:12;;;;;;;4.32;3.35;;;17.10;90.90;;;;;;5011241;28;20457;-67
2021/08/12 03:02:42;;;;;;;6.35;3.80;;;17.10;91.00;;;;;;5011051;28;20034;-67
2021/08/12 03:05:09;;;;;;;4.43;3.63;;;17.10;91.00;;;;;;5010260;28;20072;-67
2021/08/12 03:07:35;;;;;;;4.78;3.47;;;17.00;91.00;;;;;;5010509;28;20071;-67
2021/08/12 03:10:01;;;;;;;6.05;3.55;;;17.00;90.90;;;;;;5011115;28;20036;-67
2021/08/12 03:12:28;;;;;;;4.28;3.60;;;17.00;91.00;;;;;;5010053;28;20402;-68
2021/08/12 03:14:54;;;;;;;4.65;3.67;;;17.00;91.00;;;;;;5009477;28;20136;-68
2021/08/12 03:17:20;;;;;;;5.35;3.90;;;17.00;91.00;;;;;;5009916;28;20477;-67
2021/08/12 03:19:45;;;;;;;5.45;3.97;;;17.00;90.90;;;;;;5010525;28;20033;-67
2021/08/12 03:22:13;;;;;;;3.95;3.55;;;16.90;90.90;;;;;;5010270;28;20084;-68
2021/08/12 03:24:45;;;;;;;6.18;3.47;;;16.80;90.90;;;;;;5009618;28;20038;-66
2021/08/12 03:27:15;;;;;;;5.20;3.53;;;16.80;91.00;;;;;;5010901;28;20429;-67
2021/08/12 03:29:43;;;;;;;5.20;3.40;;;16.70;90.90;;;;;;5009626;28;20080;-67
2021/08/12 03:32:09;;;;;;;8.20;3.90;;;16.80;91.00;;;;;;5010254;28;20064;-67
2021/08/12 03:34:35;;;;;;;4.70;3.17;;;16.70;91.10;;;;;;5009786;28;20068;-66
2021/08/12 03:37:02;;;;;;;5.68;3.75;;;16.70;91.10;;;;;;5009425;28;20029;-67
2021/08/12 03:39:27;;;;;;;5.22;3.83;;;16.70;91.10;;;;;;5009736;28;20036;-66
2021/08/12 03:41:53;;;;;;;6.05;3.72;;;16.70;91.10;;;;;;5010143;28;20030;-68
2021/08/12 03:44:19;;;;;;;4.10;3.53;;;16.70;91.20;;;;;;5010086;28;20112;-67
2021/08/12 03:46:45;;;;;;;4.57;3.30;;;16.70;91.10;;;;;;5010449;28;20034;-67
2021/08/12 03:49:10;;;;;;;3.92;3.42;;;16.70;91.10;;;;;;5009274;28;20026;-67
2021/08/12 03:51:36;;;;;;;5.85;3.42;;;16.60;91.20;;;;;;5010899;28;20052;-68
2021/08/12 03:54:02;;;;;;;5.85;3.67;;;16.60;91.20;;;;;;5009894;28;20037;-67
2021/08/12 03:56:27;;;;;;;5.57;3.90;;;16.60;91.30;;;;;;5009725;28;20033;-68
2021/08/12 03:58:53;;;;;;;6.45;4.70;;;16.50;91.30;;;;;;5009219;28;20029;-67
2021/08/12 04:01:19;;;;;;;8.27;4.43;;;16.60;91.30;;;;;;5010575;28;20029;-67
2021/08/12 04:03:44;;;;;;;6.97;4.03;;;16.50;91.30;;;;;;5009921;28;20481;-66
2021/08/12 04:06:11;;;;;;;10.20;4.30;;;16.50;91.40;;;;;;5008295;28;20108;-67
2021/08/12 04:08:36;;;;;;;5.70;4.25;;;16.50;91.40;;;;;;5009786;28;20041;-67
2021/08/12 04:11:02;;;;;;;4.65;3.42;;;16.50;91.40;;;;;;5010328;28;20034;-67
2021/08/12 04:13:28;;;;;;;7.18;3.97;;;16.50;91.40;;;;;;5009257;28;20036;-68
2021/08/12 04:15:57;;;;;;;5.72;4.03;;;16.50;91.30;;;;;;5009111;28;20026;-67
2021/08/12 04:18:23;;;;;;;4.63;3.92;;;16.50;91.30;;;;;;5008958;28;20111;-67
2021/08/12 04:20:48;;;;;;;5.00;3.75;;;16.50;91.40;;;;;;5008742;28;20073;-68
2021/08/12 04:23:14;;;;;;;5.72;3.78;;;16.50;91.50;;;;;;5009673;28;20038;-67
2021/08/12 04:25:41;;;;;;;5.63;3.90;;;16.40;91.40;;;;;;5008068;28;20101;-68
2021/08/12 04:28:06;;;;;;;6.63;4.13;;;16.40;91.40;;;;;;5009209;28;20165;-67
2021/08/12 04:30:33;;;;;;;6.50;4.10;;;16.40;91.40;;;;;;5009178;28;20035;-68
2021/08/12 04:32:58;;;;;;;4.90;3.58;;;16.40;91.40;;;;;;5010259;28;20376;-68
2021/08/12 04:35:24;;;;;;;5.80;3.80;;;16.30;91.50;;;;;;5008667;28;20065;-68
2021/08/12 04:37:49;;;;;;;4.95;3.58;;;16.30;91.50;;;;;;5007083;28;20062;-68
2021/08/12 04:40:18;;;;;;;6.40;4.03;;;16.30;91.50;;;;;;4991768;28;20029;-68
2021/08/12 04:42:49;;;;;;;6.18;3.63;;;16.30;91.50;;;;;;5009304;28;20041;-68
2021/08/12 04:45:19;;;;;;;8.30;3.70;;;16.30;91.60;;;;;;5017655;28;20065;-67
2021/08/12 04:47:44;;;;;;;5.82;3.88;;;16.30;91.60;;;;;;5011099;28;20030;-68
2021/08/12 04:50:12;;;;;;;4.75;3.70;;;16.30;91.60;;;;;;5009391;28;20041;-68
2021/08/12 04:52:40;;;;;;;4.90;3.33;;;16.30;91.60;;;;;;5009799;28;20385;-67
2021/08/12 04:55:11;;;;;;;5.40;3.75;;;16.30;91.70;;;;;;5008085;28;20029;-68
2021/08/12 04:57:37;;;;;;;5.47;3.58;;;16.30;91.70;;;;;;5009333;28;20425;-68
2021/08/12 05:00:04;;;;;;;6.30;3.40;;;16.30;91.70;;;;;;5009391;28;20101;-68
2021/08/12 05:02:29;;;;;;;6.60;3.63;;;16.40;91.70;;;;;;5009518;28;20122;-67
2021/08/12 05:04:55;;;;;;;10.93;4.10;;;16.40;91.70;;;;;;5008938;28;20104;-68
2021/08/12 05:07:21;;;;;;;6.50;4.05;;;16.50;91.70;;;;;;5009694;28;20423;-69
2021/08/12 05:09:47;;;;;;;5.07;3.58;;;16.50;91.70;;;;;;5009257;28;20037;-67
2021/08/12 05:12:17;;;;;;;6.65;3.90;;;16.50;91.70;;;;;;5009581;28;20041;-66
2021/08/12 05:14:42;;;;;;;7.75;3.70;;;16.60;91.80;;;;;;5005806;28;20029;-68
2021/08/12 05:17:08;;;;;;;7.93;4.60;;;16.60;91.80;;;;;;5009708;28;20501;-65
2021/08/12 05:19:33;;;;;;;8.50;4.43;;;16.60;91.80;;;;;;5013419;28;20080;-68
2021/08/12 05:21:59;;;;;;;7.78;4.82;;;16.70;91.80;;;;;;5013292;28;20149;-68
2021/08/12 05:24:24;;;;;;;8.02;5.00;;;16.70;91.80;;;;;;5013178;28;20470;-68
2021/08/12 05:26:50;;;;;;;8.93;4.68;;;16.80;91.80;;;;;;5009715;28;20534;-66
2021/08/12 05:29:15;;;;;;;9.27;4.20;;;16.70;91.80;;;;;;5012719;28;20073;-68
2021/08/12 05:31:41;;;;;;;10.57;5.65;;;16.80;91.90;;;;;;5012768;28;20025;-67
2021/08/12 05:34:06;;;;;;;9.02;5.30;;;16.80;91.90;;;;;;5013183;28;20021;-67
2021/08/12 05:36:32;;;;;;;7.90;5.63;;;16.90;92.00;;;;;;5011704;28;20033;-68
2021/08/12 05:38:58;;;;;;;7.43;5.22;;;16.80;92.00;;;;;;5011540;28;20030;-68
2021/08/12 05:41:24;;;;;;;8.13;4.88;;;16.90;92.10;;;;;;5013269;28;20116;-68
2021/08/12 05:43:50;;;;;;;6.22;4.70;;;16.90;92.10;;;;;;5009845;28;20026;-68
2021/08/12 05:46:15;;;;;;;10.07;5.47;;;16.90;92.20;;;;;;5018901;28;20041;-67
2021/08/12 05:48:41;;;;;;;5.65;3.97;;;17.00;92.20;;;;;;5013047;28;20034;-67
2021/08/12 05:51:06;;;;;;;6.80;4.03;;;17.00;92.30;;;;;;5020245;28;20038;-68
2021/08/12 05:53:32;;;;;;;7.30;4.95;;;17.10;92.30;;;;;;5014346;28;20029;-68
2021/08/12 05:55:58;;;;;;;6.65;4.53;;;17.10;92.30;;;;;;5012402;28;20026;-67
2021/08/12 05:58:23;;;;;;;13.15;5.60;;;17.20;92.30;;;;;;5012915;28;20486;-72
2021/08/12 06:00:49;;;;;;;8.65;5.32;;;17.30;92.40;;;;;;5013461;28;20025;-72
2021/08/12 06:03:15;;;;;;;6.18;4.50;;;17.40;92.40;;;;;;5013134;28;20113;-66
2021/08/12 06:05:41;;;;;;;8.20;5.50;;;17.50;92.40;;;;;;5010233;28;20421;-67
2021/08/12 06:08:10;;;;;;;11.95;5.30;;;17.50;92.40;;;;;;5009911;28;20117;-67
2021/08/12 06:10:36;;;;;;;5.70;5.07;;;17.60;92.40;;;;;;5013798;28;20456;-67
2021/08/12 06:13:02;;;;;;;15.02;5.40;;;17.70;92.40;;;;;;5010465;28;20105;-67
2021/08/12 06:15:29;;;;;;;11.73;5.45;;;17.70;92.40;;;;;;5012002;28;20026;-67
2021/08/12 06:17:55;;;;;;;6.65;5.00;;;17.70;92.40;;;;;;5011895;28;20026;-67
2021/08/12 06:20:21;;;;;;;10.43;5.38;;;17.80;92.40;;;;;;5012768;28;20044;-67
2021/08/12 06:22:52;;;;;;;6.47;5.28;;;17.80;92.40;;;;;;5012830;28;20064;-67
2021/08/12 06:25:18;;;;;;;6.25;4.93;;;17.90;92.50;;;;;;5012215;28;20030;-67
2021/08/12 06:27:44;;;;;;;9.70;5.05;;;18.00;92.50;;;;;;5011553;28;20026;-67
2021/08/12 06:30:11;;;;;;;8.82;5.30;;;18.00;92.60;;;;;;5011830;28;20029;-67
2021/08/12 06:32:37;;;;;;;8.90;5.20;;;18.10;92.50;;;;;;5012674;28;20037;-67
2021/08/12 06:35:06;;;;;;;13.98;10.57;;;18.20;92.80;;;;;;5012131;28;20021;-67
2021/08/12 06:37:50;;;;;;;10.27;5.85;;;18.20;92.60;;;;;;5012127;28;20501;-67
2021/08/12 06:40:18;;;;;;;8.45;5.20;;;18.30;92.70;;;;;;5012569;28;20022;-67
2021/08/12 06:42:44;;;;;;;8.23;5.40;;;18.30;92.60;;;;;;5011893;28;20029;-67
2021/08/12 06:45:10;;;;;;;6.60;5.07;;;18.30;92.60;;;;;;5027672;28;20029;-67
2021/08/12 06:47:36;;;;;;;8.70;5.57;;;18.40;92.60;;;;;;5032164;28;20501;-67
2021/08/12 06:50:06;;;;;;;9.23;5.30;;;18.40;92.60;;;;;;5015187;28;20037;-67
2021/08/12 06:52:32;;;;;;;7.68;5.40;;;18.50;92.60;;;;;;5012415;28;20124;-67
2021/08/12 06:54:57;;;;;;;8.27;5.55;;;18.50;92.60;;;;;;5011465;28;20069;-67
2021/08/12 06:57:23;;;;;;;7.25;4.90;;;18.60;92.50;;;;;;4994064;28;20030;-67
2021/08/12 06:59:49;;;;;;;6.50;5.15;;;18.60;92.50;;;;;;5011886;28;20115;-67
2021/08/12 07:02:15;;;;;;;9.00;4.95;;;18.70;92.50;;;;;;5012033;28;20040;-67
2021/08/12 07:04:40;;;;;;;8.23;5.00;;;18.80;92.50;;;;;;5011324;28;20041;-67
2021/08/12 07:07:06;;;;;;;8.43;4.55;;;18.90;92.50;;;;;;5011796;28;20490;-67
2021/08/12 07:09:31;;;;;;;9.15;4.90;;;19.00;92.50;;;;;;5012182;28;20216;-67
2021/08/12 07:11:57;;;;;;;11.98;5.50;;;19.00;92.50;;;;;;5011672;28;20030;-67
2021/08/12 07:14:23;;;;;;;7.93;5.00;;;19.10;92.40;;;;;;5011170;28;20049;-67
2021/08/12 07:16:48;;;;;;;10.40;5.10;;;19.20;92.40;;;;;;5007763;28;20081;-67
2021/08/12 07:19:14;;;;;;;10.80;5.00;;;19.20;92.30;;;;;;5011807;28;20439;-67
2021/08/12 07:21:41;;;;;;;12.05;5.20;;;19.40;92.30;;;;;;5012036;28;20033;-67
2021/08/12 07:24:07;;;;;;;11.85;4.97;;;19.50;92.30;;;;;;5011876;28;20037;-67
2021/08/12 07:26:33;;;;;;;8.85;5.05;;;19.70;92.10;;;;;;5010928;28;20030;-68
2021/08/12 07:28:58;;;;;;;12.02;5.32;;;20.00;91.90;;;;;;5007826;28;20038;-67
2021/08/12 07:31:24;;;;;;;5.75;4.32;;;20.40;91.70;;;;;;5010454;28;20022;-67
2021/08/12 07:33:49;;;;;;;7.47;4.43;;;20.80;91.30;;;;;;5011712;28;20026;-67
2021/08/12 07:36:15;;;;;;;14.43;9.32;;;21.20;91.00;;;;;;5010723;28;20144;-67
2021/08/12 07:38:41;;;;;;;7.82;4.72;;;21.50;90.80;;;;;;5011516;28;20037;-68
2021/08/12 07:41:07;;;;;;;7.10;4.93;;;21.90;90.50;;;;;;5011469;28;20102;-67
2021/08/12 07:43:33;;;;;;;5.93;4.47;;;22.20;90.20;;;;;;5010700;28;20053;-67
2021/08/12 07:45:58;;;;;;;6.85;3.95;;;22.60;89.70;;;;;;5025077;28;20014;-67
2021/08/12 07:48:24;;;;;;;7.20;3.63;;;22.90;88.80;;;;;;5023716;28;20029;-67
2021/08/12 07:50:50;;;;;;;6.60;3.55;;;23.30;87.90;;;;;;5011682;28;20032;-67
2021/08/12 07:53:15;;;;;;;10.65;3.90;;;23.60;87.30;;;;;;5011459;28;20104;-67
2021/08/12 07:55:41;;;;;;;6.57;3.42;;;23.70;86.50;;;;;;5010593;28;20352;-67
2021/08/12 07:58:07;;;;;;;6.07;3.42;;;24.00;86.10;;;;;;5010072;28;20042;-67
2021/08/12 08:00:32;;;;;;;9.20;3.60;;;24.20;85.20;;;;;;5003797;28;20031;-67
2021/08/12 08:02:58;;;;;;;6.28;3.28;;;24.50;85.00;;;;;;4991659;28;20498;-67
2021/08/12 08:05:25;;;;;;;4.70;3.63;;;24.50;83.90;;;;;;4991254;28;20686;-67
2021/08/12 08:07:52;;;;;;;7.95;3.60;;;24.60;83.60;;;;;;5009026;28;20034;-67
2021/08/12 08:10:20;;;;;;;7.07;3.95;;;24.90;83.10;;;;;;5005048;28;20096;-67
2021/08/12 08:12:46;;;;;;;6.90;3.90;;;25.20;81.90;;;;;;5010478;28;20038;-68
2021/08/12 08:15:13;;;;;;;7.20;3.63;;;25.30;81.10;;;;;;5022565;23;20080;-65
2021/08/12 08:17:39;;;;;;;10.75;3.42;;;25.60;80.30;;;;;;5005293;28;20103;-64
2021/08/12 08:20:06;;;;;;;6.43;3.33;;;25.90;79.70;;;;;;5002763;28;20157;-65
2021/08/12 08:22:32;;;;;;;7.40;3.40;;;26.30;79.00;;;;;;5010797;28;20089;-64
2021/08/12 08:24:58;;;;;;;5.65;3.15;;;26.40;78.60;;;;;;5008847;28;20030;-64
2021/08/12 08:27:24;;;;;;;7.05;3.20;;;26.40;78.90;;;;;;4999030;28;20056;-64
2021/08/12 08:29:51;;;;;;;8.27;3.20;;;26.50;78.90;;;;;;5004483;28;20133;-64
2021/08/12 08:32:17;;;;;;;7.43;3.47;;;26.70;78.50;;;;;;5009464;28;20099;-64
2021/08/12 08:34:43;;;;;;;5.68;3.03;;;27.30;77.40;;;;;;5008709;28;20415;-64
2021/08/12 08:37:09;;;;;;;4.95;3.15;;;27.90;76.50;;;;;;5010599;28;20034;-64
2021/08/12 08:39:34;;;;;;;7.05;3.20;;;28.60;74.30;;;;;;5010900;28;20390;-64
2021/08/12 08:42:00;;;;;;;3.67;2.95;;;29.20;72.30;;;;;;5011101;28;20072;-65
2021/08/12 08:44:28;;;;;;;5.32;3.10;;;29.60;70.60;;;;;;4997179;28;20034;-64
2021/08/12 08:46:55;;;;;;;7.15;3.92;;;29.90;69.00;;;;;;5000230;28;20041;-64
2021/08/12 08:49:22;;;;;;;8.27;3.00;;;30.00;69.30;;;;;;5011273;28;20080;-65
2021/08/12 08:51:50;;;;;;;6.68;3.85;;;30.20;69.50;;;;;;5010869;28;20101;-65
2021/08/12 08:54:17;;;;;;;12.73;3.50;;;30.30;69.60;;;;;;5015166;28;20021;-64
2021/08/12 08:56:46;;;;;;;4.47;3.45;;;30.50;69.10;;;;;;5014482;28;20030;-64
2021/08/12 08:59:12;;;;;;;7.38;3.25;;;30.70;69.20;;;;;;5019505;28;20474;-65
2021/08/12 09:01:39;;;;;;;4.97;3.15;;;30.90;68.20;;;;;;5014766;28;20071;-64
2021/08/12 09:04:05;;;;;;;13.38;3.63;;;30.90;67.90;;;;;;4995529;28;20478;-65
2021/08/12 09:06:31;;;;;;;4.10;2.92;;;31.10;67.90;;;;;;4993875;28;20065;-64
2021/08/12 09:08:59;;;;;;;11.50;3.17;;;31.20;67.70;;;;;;5008741;28;20056;-65
2021/08/12 09:11:26;;;;;;;3.10;2.80;;;31.40;67.30;;;;;;5014584;28;20084;-65
2021/08/12 09:13:53;;;;;;;6.22;2.75;;;31.70;66.30;;;;;;5013507;28;20025;-65
2021/08/12 09:16:37;;;;;;;4.50;2.67;;;31.90;65.70;;;;;;5013129;28;20037;-65
2021/08/12 09:19:20;;;;;;;3.75;3.22;;;32.20;65.10;;;;;;5014294;28;20025;-65
2021/08/12 09:21:57;;;;;;;3.90;3.00;;;32.20;63.10;;;;;;5014405;28;20033;-66
2021/08/12 09:24:23;;;;;;;3.30;2.58;;;32.30;62.60;;;;;;5014181;28;20022;-66
2021/08/12 09:26:49;;;;;;;3.70;3.08;;;32.50;62.20;;;;;;5013071;28;20551;-66
2021/08/12 09:29:29;;;;;;;7.07;3.15;;;32.70;61.60;;;;;;5013388;28;20087;-66
2021/08/12 09:32:00;;;;;;;5.28;3.10;;;32.80;61.00;;;;;;5014167;28;20025;-65
2021/08/12 09:34:46;;;;;;;;;;;32.90;60.60;;;;;;5014916;28;20022;-66
2021/08/12 09:37:12;;;;;;;4.13;2.83;;;33.00;64.10;;;;;;5013195;28;19932;-66
2021/08/12 09:39:39;;;;;;;3.83;3.10;;;32.90;62.00;;;;;;5014001;28;20022;-66
2021/08/12 09:42:05;;;;;;;4.32;3.20;;;32.80;60.60;;;;;;5013878;28;20036;-66
2021/08/12 09:44:37;;;;;;;9.95;3.25;;;32.80;59.20;;;;;;5008356;28;20030;-66
2021/08/12 09:47:11;;;;;;;5.05;3.17;;;32.50;58.20;;;;;;5013032;28;20433;-66
2021/08/12 09:49:43;;;;;;;4.10;3.00;;;32.50;58.90;;;;;;5012340;28;20164;-66
2021/08/12 09:52:20;;;;;;;3.97;3.40;;;32.40;58.40;;;;;;5013645;28;20389;-66
2021/08/12 09:54:47;;;;;;;6.05;3.47;;;32.60;58.40;;;;;;5012583;28;20438;-66
2021/08/12 09:57:21;;;;;;;5.07;3.15;;;32.70;58.20;;;;;;5013500;28;20058;-66
2021/08/12 09:59:52;;;;;;;5.32;3.28;;;32.60;56.50;;;;;;5012813;28;20026;-66
2021/08/12 10:02:19;;;;;;;3.92;3.35;;;32.50;56.50;;;;;;5013402;28;20018;-66
2021/08/12 10:04:45;;;;;;;3.80;3.13;;;32.50;57.30;;;;;;5011122;28;20026;-66
2021/08/12 10:07:36;;;;;;;7.32;3.65;;;32.60;57.00;;;;;;5013092;28;20037;-66
2021/08/12 10:10:13;;;;;;;5.15;3.20;;;32.60;56.50;;;;;;5012875;28;20470;-66
2021/08/12 10:12:46;;;;;;;8.32;3.30;;;32.60;56.60;;;;;;5011303;28;20025;-66
2021/08/12 10:15:11;;;;;;;5.43;3.00;;;32.60;56.70;;;;;;5010648;28;20095;-66
2021/08/12 10:17:41;;;;;;;6.10;3.47;;;32.50;57.20;;;;;;5012368;28;20481;-66
2021/08/12 10:20:09;;;;;;;6.85;3.40;;;32.50;57.20;;;;;;5013121;28;20026;-66
2021/08/12 10:22:35;;;;;;;5.10;3.45;;;32.50;57.00;;;;;;5012848;28;20105;-65
2021/08/12 10:25:01;;;;;;;4.88;3.63;;;32.50;56.50;;;;;;5012141;28;20109;-66
2021/08/12 10:27:28;;;;;;;5.93;3.67;;;32.50;56.10;;;;;;5012690;28;20132;-66
2021/08/12 10:29:53;;;;;;;3.75;3.25;;;32.50;56.10;;;;;;5012368;28;20056;-66
2021/08/12 10:32:21;;;;;;;4.13;3.72;;;32.40;55.60;;;;;;5012825;28;20123;-66
2021/08/12 10:34:48;;;;;;;4.75;3.72;;;32.20;55.40;;;;;;5010417;28;20036;-65
2021/08/12 10:37:13;;;;;;;4.25;3.30;;;32.20;55.90;;;;;;5012520;28;20033;-66
2021/08/12 10:39:40;;;;;;;4.10;3.63;;;32.20;55.60;;;;;;5012762;28;20486;-65
2021/08/12 10:42:07;;;;;;;6.68;4.32;;;32.20;55.00;;;;;;5012803;28;20025;-66
2021/08/12 10:44:34;;;;;;;4.85;3.88;;;32.20;54.90;;;;;;5012033;28;20033;-65
2021/08/12 10:47:00;;;;;;;6.10;3.53;;;32.10;54.80;;;;;;5011545;28;20474;-66
2021/08/12 10:49:31;;;;;;;3.92;3.55;;;31.90;54.80;;;;;;5010942;28;20502;-65
2021/08/12 10:52:08;;;;;;;5.00;3.85;;;31.90;54.50;;;;;;5012503;28;20025;-66
2021/08/12 10:54:38;;;;;;;5.10;3.60;;;31.90;54.80;;;;;;5011809;28;20037;-66
2021/08/12 10:57:17;;;;;;;6.72;3.55;;;31.80;54.50;;;;;;5012251;28;20061;-66
2021/08/12 10:59:44;;;;;;;7.57;3.88;;;31.70;54.30;;;;;;5012456;28;20042;-65
2021/08/12 11:02:28;;;;;;;6.63;3.90;;;31.60;54.60;;;;;;5011440;28;20037;-65
2021/08/12 11:04:55;;;;;;;4.45;3.47;;;31.60;54.60;;;;;;5009960;28;20052;-65
2021/08/12 11:07:39;;;;;;;4.93;3.55;;;31.50;54.80;;;;;;5010236;28;20773;-65
2021/08/12 11:10:06;;;;;;;5.85;3.85;;;31.40;54.90;;;;;;5012029;28;20033;-65
2021/08/12 11:12:53;;;;;;;5.95;3.88;;;31.20;54.30;;;;;;5003998;28;20033;-65
2021/08/12 11:15:37;;;;;;;4.72;3.80;;;31.00;54.50;;;;;;5010599;28;20029;-66
2021/08/12 11:18:03;;;;;;;8.25;3.70;;;30.90;55.20;;;;;;5011137;28;20022;-66
2021/08/12 11:20:32;;;;;;;6.70;3.63;;;30.90;55.30;;;;;;5012007;28;20060;-66
2021/08/12 11:23:17;;;;;;;6.95;3.55;;;30.80;55.00;;;;;;5011771;28;20022;-65
2021/08/12 11:25:58;;;;;;;4.57;3.70;;;30.80;55.30;;;;;;5010873;28;20037;-65
2021/08/12 11:28:38;;;;;;;4.78;3.83;;;30.70;55.10;;;;;;5011643;28;20494;-65
2021/08/12 11:31:05;;;;;;;4.40;3.70;;;30.50;54.20;;;;;;5004505;28;20034;-65
2021/08/12 11:33:32;;;;;;;4.95;3.88;;;30.30;54.80;;;;;;4992227;28;20030;-65
2021/08/12 11:36:08;;;;;;;3.67;3.38;;;30.30;55.80;;;;;;4989672;28;20060;-65
2021/08/12 11:38:34;;;;;;;4.80;3.40;;;30.30;55.50;;;;;;4992059;28;20023;-65
2021/08/12 11:41:00;;;;;;;4.20;3.80;;;30.30;55.10;;;;;;4992205;28;20026;-65
2021/08/12 11:43:27;;;;;;;5.70;4.95;;;30.30;55.50;;;;;;4992036;28;20118;-66
2021/08/12 11:45:56;;;;;;;6.07;5.10;;;30.30;54.90;;;;;;4992469;28;20550;-65
2021/08/12 11:48:22;;;;;;;5.93;3.65;;;30.30;54.90;;;;;;5011102;28;20030;-66
2021/08/12 11:50:50;;;;;;;4.35;3.55;;;30.20;55.00;;;;;;5010852;28;20101;-65
2021/08/12 11:53:35;;;;;;;4.45;3.70;;;30.20;54.30;;;;;;5011419;28;20505;-65
2021/08/12 11:56:27;;;;;;;5.28;3.80;;;30.30;54.40;;;;;;5010601;28;20037;-65
2021/08/12 11:58:58;;;;;;;4.03;3.60;;;30.30;54.10;;;;;;5010811;28;20034;-64
2021/08/12 12:01:25;;;;;;;5.97;3.92;;;30.30;55.00;;;;;;5010034;28;20026;-65
2021/08/12 12:04:04;;;;;;;5.28;3.92;;;30.10;54.00;;;;;;5002817;28;20494;-65
2021/08/12 12:06:39;;;;;;;5.20;3.60;;;30.10;54.30;;;;;;5008793;28;20018;-64
2021/08/12 12:09:21;;;;;;;5.35;3.85;;;30.00;54.60;;;;;;5009640;28;22036;-66
2021/08/12 12:11:50;;;;;;;7.55;4.30;;;30.10;54.20;;;;;;5011240;28;20030;-65
2021/08/12 12:14:27;;;;;;;7.70;4.35;;;30.00;54.00;;;;;;5010214;28;20164;-66
2021/08/12 12:17:15;;;;;;;4.68;3.33;;;30.00;54.40;;;;;;5010033;28;20057;-65
2021/08/12 12:20:19;;;;;;;5.70;4.30;;;29.90;54.50;;;;;;5009862;28;20026;-66
2021/08/12 12:23:05;;;;;;;4.55;3.90;;;29.80;54.80;;;;;;4988796;28;20080;-66
2021/08/12 12:25:33;;;;;;;13.90;4.13;;;29.80;55.20;;;;;;4971781;28;20659;-66
2021/08/12 12:27:59;;;;;;;4.78;4.15;;;29.70;56.00;;;;;;5001616;28;20128;-66
2021/08/12 12:30:27;;;;;;;5.40;4.00;;;29.70;56.10;;;;;;5009317;28;20025;-66
2021/08/12 12:33:10;;;;;;;5.78;3.80;;;29.70;56.70;;;;;;5011096;28;20076;-66
2021/08/12 12:35:38;;;;;;;6.32;4.13;;;29.80;55.60;;;;;;5009905;28;20069;-66
2021/08/12 12:38:14;;;;;;;5.25;3.83;;;29.70;55.80;;;;;;5010750;28;20026;-66
2021/08/12 12:40:40;;;;;;;6.88;4.15;;;29.70;55.60;;;;;;5011019;28;20022;-66
2021/08/12 12:43:07;;;;;;;4.32;3.90;;;29.60;55.70;;;;;;5010880;28;20068;-66
2021/08/12 12:45:49;;;;;;;11.15;3.60;;;29.60;55.50;;;;;;5009043;28;20025;-66
2021/08/12 12:48:16;;;;;;;5.30;3.53;;;29.50;55.40;;;;;;4990747;28;20030;-66
2021/08/12 12:50:49;;;;;;;7.50;4.07;;;29.40;56.00;;;;;;5002636;28;20022;-66
2021/08/12 12:53:41;;;;;;;5.55;3.88;;;29.40;55.30;;;;;;5010744;28;20018;-66
2021/08/12 12:56:33;;;;;;;;;;;29.40;55.30;;;;;;5010156;28;20040;-66